createdAt,value
2023-04-16T00:00:15.196Z,8.20
2023-04-16T00:00:48.276Z,8.24
2023-04-16T00:01:19.771Z,8.20
2023-04-16T00:01:51.576Z,8.28
2023-04-16T00:02:23.307Z,8.22
2023-04-16T00:02:55.070Z,8.14
2023-04-16T00:03:26.892Z,8.03
2023-04-16T00:03:58.828Z,7.98
2023-04-16T00:04:31.216Z,7.99
2023-04-16T00:05:03.082Z,7.93
2023-04-16T00:05:34.695Z,7.96
2023-04-16T00:06:06.287Z,7.91
2023-04-16T00:06:37.755Z,7.88
2023-04-16T00:07:09.403Z,8.05
2023-04-16T00:07:41.105Z,7.89
2023-04-16T00:08:12.725Z,7.99
2023-04-16T00:08:44.237Z,8.07
2023-04-16T00:09:15.756Z,8.00
2023-04-16T00:09:47.257Z,7.97
2023-04-16T00:10:18.872Z,7.85
2023-04-16T00:10:52.504Z,8.04
2023-04-16T00:11:24.167Z,7.99
2023-04-16T00:11:55.833Z,8.03
2023-04-16T00:12:27.480Z,8.10
2023-04-16T00:12:59.000Z,8.10
2023-04-16T00:13:30.495Z,7.98
2023-04-16T00:14:01.999Z,7.94
2023-04-16T00:14:33.520Z,8.03
2023-04-16T00:15:05.522Z,8.00
2023-04-16T00:15:37.017Z,8.06
2023-04-16T00:16:08.959Z,8.05
2023-04-16T00:16:40.436Z,8.01
2023-04-16T00:17:12.085Z,8.06
2023-04-16T00:17:43.822Z,8.03
2023-04-16T00:18:15.426Z,7.97
2023-04-16T00:18:47.064Z,7.92
2023-04-16T00:19:18.522Z,7.95
2023-04-16T00:19:49.986Z,7.90
2023-04-16T00:20:21.492Z,8.03
2023-04-16T00:20:53.498Z,8.01
2023-04-16T00:21:25.059Z,8.04
2023-04-16T00:21:56.530Z,7.97
2023-04-16T00:22:28.040Z,7.89
2023-04-16T00:22:59.506Z,7.87
2023-04-16T00:23:31.084Z,7.94
2023-04-16T00:24:02.614Z,7.86
2023-04-16T00:24:34.080Z,7.78
2023-04-16T00:25:05.902Z,7.88
2023-04-16T00:25:37.331Z,7.95
2023-04-16T00:26:08.792Z,8.02
2023-04-16T00:26:40.969Z,8.02
2023-04-16T00:27:12.515Z,8.05
2023-04-16T00:27:43.986Z,7.98
2023-04-16T00:28:15.652Z,8.03
2023-04-16T00:28:47.265Z,7.99
2023-04-16T00:29:19.252Z,7.96
2023-04-16T00:29:50.781Z,8.03
2023-04-16T00:30:22.737Z,8.07
2023-04-16T00:30:54.752Z,8.02
2023-04-16T00:31:31.052Z,8.13
2023-04-16T00:32:02.790Z,8.09
2023-04-16T00:32:34.682Z,8.04
2023-04-16T00:33:08.611Z,8.00
2023-04-16T00:33:40.391Z,7.95
2023-04-16T00:34:11.949Z,7.90
2023-04-16T00:34:43.565Z,8.13
2023-04-16T00:35:15.072Z,8.14
2023-04-16T00:35:47.126Z,8.13
2023-04-16T00:36:18.613Z,8.03
2023-04-16T00:36:50.206Z,8.06
2023-04-16T00:37:21.626Z,8.03
2023-04-16T00:37:53.129Z,8.09
2023-04-16T00:38:24.831Z,8.05
2023-04-16T00:38:56.712Z,7.96
2023-04-16T00:39:28.197Z,7.99
2023-04-16T00:39:59.658Z,8.08
2023-04-16T00:40:31.366Z,8.02
2023-04-16T00:41:02.951Z,8.03
2023-04-16T00:41:34.424Z,8.07
2023-04-16T00:42:06.021Z,8.16
2023-04-16T00:42:38.221Z,8.18
2023-04-16T00:43:09.748Z,8.09
2023-04-16T00:43:41.232Z,8.05
2023-04-16T00:44:12.746Z,7.90
2023-04-16T00:44:45.424Z,7.86
2023-04-16T00:45:16.914Z,7.84
2023-04-16T00:45:48.746Z,7.86
2023-04-16T00:46:22.168Z,7.93
2023-04-16T00:46:53.954Z,8.06
2023-04-16T00:47:25.542Z,7.98
2023-04-16T00:48:00.457Z,7.96
2023-04-16T00:48:32.902Z,8.03
2023-04-16T00:49:04.558Z,7.97
2023-04-16T00:49:36.130Z,7.89
2023-04-16T00:50:08.025Z,7.88
2023-04-16T00:50:39.534Z,7.95
2023-04-16T00:51:11.568Z,7.89
2023-04-16T00:51:43.086Z,7.79
2023-04-16T00:52:14.836Z,7.89
2023-04-16T00:52:49.648Z,7.89
2023-04-16T00:53:21.149Z,7.90
2023-04-16T00:53:52.647Z,7.99
2023-04-16T00:54:25.669Z,7.96
2023-04-16T00:54:57.411Z,7.98
2023-04-16T00:55:29.160Z,7.98
2023-04-16T00:56:02.840Z,7.94
2023-04-16T00:56:35.652Z,7.92
2023-04-16T00:57:07.139Z,7.87
2023-04-16T00:57:39.026Z,8.02
2023-04-16T00:58:10.545Z,7.93
2023-04-16T00:58:42.024Z,8.03
2023-04-16T00:59:13.498Z,8.02
2023-04-16T00:59:45.202Z,8.05
2023-04-16T01:00:16.943Z,7.97
2023-04-16T01:00:48.450Z,8.01
2023-04-16T01:01:21.130Z,8.12
2023-04-16T01:01:52.950Z,8.07
2023-04-16T01:02:24.813Z,7.93
2023-04-16T01:02:57.010Z,7.96
2023-04-16T01:03:48.032Z,8.00
2023-04-16T01:04:19.714Z,7.97
2023-04-16T01:04:51.744Z,8.03
2023-04-16T01:05:23.190Z,8.05
2023-04-16T01:05:55.602Z,8.07
2023-04-16T01:06:27.872Z,8.20
2023-04-16T01:07:00.166Z,8.14
2023-04-16T01:07:31.780Z,8.02
2023-04-16T01:08:03.295Z,8.05
2023-04-16T01:08:35.133Z,8.07
2023-04-16T01:09:07.041Z,8.04
2023-04-16T01:09:38.645Z,8.00
2023-04-16T01:10:10.517Z,8.01
2023-04-16T01:10:42.139Z,7.90
2023-04-16T01:11:15.072Z,7.98
2023-04-16T01:11:46.716Z,7.95
2023-04-16T01:12:18.304Z,7.86
2023-04-16T01:12:49.792Z,7.85
2023-04-16T01:13:21.429Z,7.87
2023-04-16T01:13:52.899Z,8.00
2023-04-16T01:14:24.426Z,7.97
2023-04-16T01:14:56.390Z,7.97
2023-04-16T01:15:27.889Z,7.95
2023-04-16T01:16:00.110Z,7.91
2023-04-16T01:16:32.344Z,7.97
2023-04-16T01:17:04.153Z,7.97
2023-04-16T01:17:35.687Z,7.99
2023-04-16T01:18:17.132Z,8.01
2023-04-16T01:18:48.911Z,7.99
2023-04-16T01:19:20.483Z,7.98
2023-04-16T01:19:52.012Z,8.02
2023-04-16T01:20:23.580Z,7.98
2023-04-16T01:20:55.342Z,8.08
2023-04-16T01:21:27.488Z,8.00
2023-04-16T01:21:59.148Z,7.94
2023-04-16T01:22:30.895Z,7.99
2023-04-16T01:23:02.435Z,8.04
2023-04-16T01:23:34.081Z,8.09
2023-04-16T01:24:06.274Z,8.02
2023-04-16T01:24:38.262Z,8.13
2023-04-16T01:25:14.112Z,8.19
2023-04-16T01:25:46.343Z,8.23
2023-04-16T01:26:17.803Z,8.09
2023-04-16T01:26:49.319Z,8.08
2023-04-16T01:27:20.879Z,8.09
2023-04-16T01:27:54.818Z,8.14
2023-04-16T01:28:26.465Z,8.02
2023-04-16T01:28:58.444Z,8.13
2023-04-16T01:29:30.090Z,8.15
2023-04-16T01:30:03.343Z,8.07
2023-04-16T01:30:45.522Z,8.03
2023-04-16T01:31:24.870Z,8.01
2023-04-16T01:32:03.195Z,8.13
2023-04-16T01:32:40.693Z,8.09
2023-04-16T01:33:12.852Z,8.13
2023-04-16T01:33:45.410Z,8.09
2023-04-16T01:34:17.271Z,8.07
2023-04-16T01:34:49.622Z,8.08
2023-04-16T01:35:21.264Z,8.04
2023-04-16T01:35:53.000Z,8.07
2023-04-16T01:36:24.617Z,8.07
2023-04-16T01:36:56.181Z,8.01
2023-04-16T01:37:27.674Z,8.04
2023-04-16T01:37:59.205Z,8.17
2023-04-16T01:38:30.669Z,8.10
2023-04-16T01:39:03.368Z,8.16
2023-04-16T01:39:34.878Z,8.16
2023-04-16T01:40:06.900Z,8.15
2023-04-16T01:40:38.717Z,8.23
2023-04-16T01:41:10.207Z,8.17
2023-04-16T01:41:42.542Z,8.21
2023-04-16T01:42:14.001Z,8.21
2023-04-16T01:42:45.633Z,8.05
2023-04-16T01:43:17.194Z,7.99
2023-04-16T01:43:48.677Z,8.09
2023-04-16T01:44:21.698Z,8.11
2023-04-16T01:44:53.224Z,8.20
2023-04-16T01:45:25.292Z,8.10
2023-04-16T01:46:13.046Z,8.16
2023-04-16T01:46:45.081Z,8.18
2023-04-16T01:47:16.900Z,8.17
2023-04-16T01:47:49.942Z,8.16
2023-04-16T01:48:21.453Z,8.16
2023-04-16T01:48:54.778Z,8.13
2023-04-16T01:49:26.309Z,8.07
2023-04-16T01:49:59.770Z,8.03
2023-04-16T01:50:31.522Z,8.01
2023-04-16T01:51:04.884Z,8.06
2023-04-16T01:51:36.483Z,8.08
2023-04-16T01:52:08.654Z,7.99
2023-04-16T01:52:40.239Z,7.91
2023-04-16T01:53:11.685Z,7.95
2023-04-16T01:53:43.574Z,8.14
2023-04-16T01:54:15.304Z,8.07
2023-04-16T01:54:47.014Z,8.13
2023-04-16T01:55:18.554Z,7.97
2023-04-16T01:55:50.031Z,8.03
2023-04-16T01:56:21.584Z,8.02
2023-04-16T01:56:53.123Z,8.09
2023-04-16T01:57:24.629Z,8.14
2023-04-16T01:57:57.667Z,7.99
2023-04-16T01:58:32.621Z,8.01
2023-04-16T01:59:04.408Z,7.99
2023-04-16T01:59:41.565Z,7.92
2023-04-16T02:00:13.163Z,7.91
2023-04-16T02:00:50.905Z,7.96
2023-04-16T02:01:22.633Z,8.14
2023-04-16T02:01:54.404Z,8.15
2023-04-16T02:02:29.097Z,8.17
2023-04-16T02:03:01.257Z,8.20
2023-04-16T02:03:33.517Z,8.07
2023-04-16T02:04:05.578Z,8.11
2023-04-16T02:04:41.660Z,8.17
2023-04-16T02:05:13.156Z,8.07
2023-04-16T02:05:44.632Z,7.95
2023-04-16T02:06:16.465Z,8.01
2023-04-16T02:06:48.009Z,8.03
2023-04-16T02:07:20.195Z,8.03
2023-04-16T02:07:51.640Z,8.03
2023-04-16T02:08:23.481Z,8.16
2023-04-16T02:08:55.022Z,8.10
2023-04-16T02:09:26.645Z,8.14
2023-04-16T02:09:58.354Z,8.15
2023-04-16T02:10:29.937Z,8.17
2023-04-16T02:11:02.070Z,8.10
2023-04-16T02:11:34.147Z,8.11
2023-04-16T02:12:06.086Z,8.08
2023-04-16T02:12:37.557Z,8.16
2023-04-16T02:13:09.350Z,8.09
2023-04-16T02:13:41.441Z,8.07
2023-04-16T02:14:12.987Z,8.13
2023-04-16T02:14:44.677Z,8.10
2023-04-16T02:15:18.381Z,8.19
2023-04-16T02:15:50.922Z,8.10
2023-04-16T02:16:29.349Z,8.11
2023-04-16T02:17:21.368Z,8.09
2023-04-16T02:17:57.039Z,8.14
2023-04-16T02:18:29.971Z,8.09
2023-04-16T02:19:02.364Z,8.10
2023-04-16T02:19:36.650Z,8.09
2023-04-16T02:20:10.185Z,8.07
2023-04-16T02:20:49.776Z,8.07
2023-04-16T02:21:22.316Z,8.07
2023-04-16T02:21:55.022Z,8.07
2023-04-16T02:22:26.463Z,8.19
2023-04-16T02:22:58.023Z,8.14
2023-04-16T02:23:29.652Z,8.15
2023-04-16T02:24:03.112Z,8.14
2023-04-16T02:24:35.934Z,8.14
2023-04-16T02:25:11.645Z,8.18
2023-04-16T02:25:45.064Z,8.18
2023-04-16T02:26:17.530Z,8.18
2023-04-16T02:26:49.790Z,8.18
2023-04-16T02:27:23.195Z,8.15
2023-04-16T02:27:59.826Z,8.10
2023-04-16T02:28:39.309Z,8.16
2023-04-16T02:29:12.374Z,8.15
2023-04-16T02:29:48.308Z,8.07
2023-04-16T02:30:22.376Z,8.16
2023-04-16T02:30:54.342Z,8.14
2023-04-16T02:31:28.389Z,8.13
2023-04-16T02:32:00.852Z,8.11
2023-04-16T02:32:33.794Z,8.17
2023-04-16T02:33:07.294Z,8.13
2023-04-16T02:33:40.139Z,8.15
2023-04-16T02:34:11.826Z,8.06
2023-04-16T02:34:43.356Z,8.13
2023-04-16T02:35:16.596Z,8.05
2023-04-16T02:35:49.800Z,8.15
2023-04-16T02:36:22.166Z,8.11
2023-04-16T02:36:55.043Z,8.10
2023-04-16T02:37:26.893Z,8.05
2023-04-16T02:37:58.794Z,8.15
2023-04-16T02:38:30.397Z,8.13
2023-04-16T02:39:02.204Z,8.17
2023-04-16T02:39:33.761Z,8.13
2023-04-16T02:40:05.732Z,8.21
2023-04-16T02:40:37.325Z,8.26
2023-04-16T02:41:08.839Z,8.27
2023-04-16T02:41:40.349Z,8.23
2023-04-16T02:42:11.839Z,8.16
2023-04-16T02:42:43.362Z,8.14
2023-04-16T02:43:14.948Z,8.19
2023-04-16T02:43:46.459Z,8.18
2023-04-16T02:44:18.051Z,8.11
2023-04-16T02:44:49.901Z,8.15
2023-04-16T02:45:21.646Z,8.10
2023-04-16T02:45:53.190Z,8.21
2023-04-16T02:46:24.904Z,8.29
2023-04-16T02:46:56.500Z,8.21
2023-04-16T02:47:27.975Z,8.27
2023-04-16T02:47:59.999Z,8.32
2023-04-16T02:48:31.811Z,8.27
2023-04-16T02:49:03.287Z,8.28
2023-04-16T02:49:35.877Z,8.31
2023-04-16T02:50:08.151Z,8.25
2023-04-16T02:50:39.690Z,8.22
2023-04-16T02:51:11.157Z,8.22
2023-04-16T02:51:42.671Z,8.30
2023-04-16T02:52:15.630Z,8.25
2023-04-16T02:52:47.392Z,8.25
2023-04-16T02:53:19.097Z,8.18
2023-04-16T02:53:50.712Z,8.29
2023-04-16T02:54:24.412Z,8.26
2023-04-16T02:54:56.025Z,8.22
2023-04-16T02:55:29.435Z,8.33
2023-04-16T02:56:01.217Z,8.23
2023-04-16T02:56:32.724Z,8.31
2023-04-16T02:57:04.297Z,8.36
2023-04-16T02:57:35.915Z,8.39
2023-04-16T02:58:07.527Z,8.26
2023-04-16T02:58:39.183Z,8.30
2023-04-16T02:59:10.958Z,8.24
2023-04-16T02:59:42.789Z,8.18
2023-04-16T03:00:14.524Z,8.24
2023-04-16T03:00:46.280Z,8.29
2023-04-16T03:01:18.224Z,8.28
2023-04-16T03:01:50.022Z,8.26
2023-04-16T03:02:21.855Z,8.32
2023-04-16T03:02:53.550Z,8.34
2023-04-16T03:03:25.373Z,8.22
2023-04-16T03:03:56.988Z,8.30
2023-04-16T03:04:28.579Z,8.27
2023-04-16T03:05:00.320Z,8.32
2023-04-16T03:05:32.108Z,8.31
2023-04-16T03:06:03.788Z,8.30
2023-04-16T03:06:35.536Z,8.24
2023-04-16T03:07:07.829Z,8.22
2023-04-16T03:07:40.715Z,8.16
2023-04-16T03:08:12.324Z,8.02
2023-04-16T03:08:43.893Z,8.08
2023-04-16T03:09:15.457Z,8.20
2023-04-16T03:09:47.209Z,8.16
2023-04-16T03:10:18.778Z,8.33
2023-04-16T03:10:50.435Z,8.31
2023-04-16T03:11:22.272Z,8.34
2023-04-16T03:11:53.910Z,8.27
2023-04-16T03:12:25.800Z,8.31
2023-04-16T03:12:57.317Z,8.30
2023-04-16T03:13:29.367Z,8.31
2023-04-16T03:14:01.174Z,8.21
2023-04-16T03:14:32.777Z,8.22
2023-04-16T03:15:04.738Z,8.21
2023-04-16T03:15:36.266Z,8.22
2023-04-16T03:16:08.082Z,8.25
2023-04-16T03:16:39.667Z,8.31
2023-04-16T03:17:11.627Z,8.27
2023-04-16T03:17:43.319Z,8.27
2023-04-16T03:18:15.358Z,8.31
2023-04-16T03:18:46.939Z,8.34
2023-04-16T03:19:18.516Z,8.36
2023-04-16T03:19:50.923Z,8.47
2023-04-16T03:20:24.337Z,8.45
2023-04-16T03:20:57.677Z,8.45
2023-04-16T03:21:29.370Z,8.39
2023-04-16T03:22:02.126Z,8.43
2023-04-16T03:22:33.778Z,8.37
2023-04-16T03:23:05.648Z,8.33
2023-04-16T03:23:37.171Z,8.42
2023-04-16T03:24:09.200Z,8.38
2023-04-16T03:24:40.784Z,8.36
2023-04-16T03:25:12.419Z,8.34
2023-04-16T03:25:46.683Z,8.27
2023-04-16T03:26:18.613Z,8.38
2023-04-16T03:26:50.364Z,8.34
2023-04-16T03:27:22.884Z,8.32
2023-04-16T03:27:54.484Z,8.33
2023-04-16T03:28:26.275Z,8.38
2023-04-16T03:28:58.158Z,8.34
2023-04-16T03:29:29.925Z,8.27
2023-04-16T03:30:02.547Z,8.24
2023-04-16T03:30:34.738Z,8.20
2023-04-16T03:31:06.693Z,8.19
2023-04-16T03:31:39.772Z,8.14
2023-04-16T03:32:12.827Z,8.11
2023-04-16T03:32:44.537Z,8.07
2023-04-16T03:33:16.400Z,8.24
2023-04-16T03:33:48.085Z,8.24
2023-04-16T03:34:19.674Z,8.22
2023-04-16T03:34:51.619Z,8.22
2023-04-16T03:35:23.124Z,8.23
2023-04-16T03:35:57.111Z,8.25
2023-04-16T03:36:31.023Z,8.22
2023-04-16T03:37:02.785Z,8.15
2023-04-16T03:37:34.916Z,8.05
2023-04-16T03:38:06.664Z,8.04
2023-04-16T03:38:38.314Z,8.07
2023-04-16T03:39:09.970Z,8.06
2023-04-16T03:39:41.841Z,8.22
2023-04-16T03:40:15.783Z,8.23
2023-04-16T03:40:47.744Z,8.25
2023-04-16T03:41:20.167Z,8.17
2023-04-16T03:41:51.669Z,8.23
2023-04-16T03:42:23.376Z,8.19
2023-04-16T03:42:55.687Z,8.20
2023-04-16T03:43:27.218Z,8.25
2023-04-16T03:43:58.765Z,8.18
2023-04-16T03:44:30.370Z,8.23
2023-04-16T03:45:01.917Z,8.17
2023-04-16T03:45:33.605Z,8.12
2023-04-16T03:46:05.337Z,8.07
2023-04-16T03:46:37.127Z,8.15
2023-04-16T03:47:08.915Z,8.17
2023-04-16T03:47:40.713Z,8.13
2023-04-16T03:48:13.954Z,8.09
2023-04-16T03:48:45.470Z,8.17
2023-04-16T03:49:17.560Z,8.13
2023-04-16T03:49:49.078Z,8.11
2023-04-16T03:50:20.896Z,8.17
2023-04-16T03:50:53.003Z,8.12
2023-04-16T03:51:26.288Z,8.18
2023-04-16T03:51:57.870Z,8.17
2023-04-16T03:52:30.687Z,8.14
2023-04-16T03:53:02.240Z,8.09
2023-04-16T03:53:33.890Z,8.20
2023-04-16T03:54:05.436Z,8.14
2023-04-16T03:54:37.707Z,8.16
2023-04-16T03:55:20.647Z,8.22
2023-04-16T03:55:52.777Z,8.17
2023-04-16T03:56:25.619Z,8.19
2023-04-16T03:56:57.735Z,8.18
2023-04-16T03:57:29.248Z,8.30
2023-04-16T03:58:06.192Z,8.28
2023-04-16T03:58:38.200Z,8.22
2023-04-16T03:59:10.218Z,8.19
2023-04-16T03:59:41.928Z,8.14
2023-04-16T04:00:14.288Z,8.13
2023-04-16T04:00:48.584Z,8.09
2023-04-16T04:01:21.591Z,8.17
2023-04-16T04:01:53.813Z,8.04
2023-04-16T04:02:25.675Z,8.05
2023-04-16T04:02:57.814Z,8.15
2023-04-16T04:03:30.133Z,8.24
2023-04-16T04:04:02.271Z,8.23
2023-04-16T04:04:34.219Z,8.18
2023-04-16T04:05:06.149Z,8.18
2023-04-16T04:05:39.775Z,8.22
2023-04-16T04:06:12.636Z,8.24
2023-04-16T04:06:46.118Z,8.24
2023-04-16T04:07:17.877Z,8.27
2023-04-16T04:07:49.596Z,8.20
2023-04-16T04:08:21.197Z,8.20
2023-04-16T04:08:52.968Z,8.25
2023-04-16T04:09:24.700Z,8.25
2023-04-16T04:09:56.989Z,8.23
2023-04-16T04:10:28.486Z,8.20
2023-04-16T04:11:00.008Z,8.22
2023-04-16T04:11:32.542Z,8.16
2023-04-16T04:12:04.137Z,8.11
2023-04-16T04:12:37.223Z,8.20
2023-04-16T04:13:08.782Z,8.14
2023-04-16T04:13:41.058Z,8.08
2023-04-16T04:14:12.831Z,8.21
2023-04-16T04:14:44.406Z,8.23
2023-04-16T04:15:16.380Z,8.13
2023-04-16T04:15:47.910Z,8.12
2023-04-16T04:16:19.577Z,8.09
2023-04-16T04:16:51.141Z,8.07
2023-04-16T04:17:22.717Z,8.23
2023-04-16T04:17:55.521Z,8.29
2023-04-16T04:18:28.064Z,8.25
2023-04-16T04:19:00.371Z,8.15
2023-04-16T04:19:31.928Z,8.13
2023-04-16T04:20:03.745Z,8.08
2023-04-16T04:20:40.119Z,8.17
2023-04-16T04:21:12.560Z,8.10
2023-04-16T04:21:44.104Z,8.11
2023-04-16T04:22:15.630Z,8.12
2023-04-16T04:22:47.179Z,8.08
2023-04-16T04:23:18.723Z,8.12
2023-04-16T04:23:51.363Z,8.15
2023-04-16T04:24:22.929Z,8.11
2023-04-16T04:24:54.552Z,8.25
2023-04-16T04:25:26.309Z,8.24
2023-04-16T04:25:58.027Z,8.26
2023-04-16T04:26:29.843Z,8.27
2023-04-16T04:27:02.116Z,8.22
2023-04-16T04:27:34.712Z,8.18
2023-04-16T04:28:07.031Z,8.11
2023-04-16T04:28:38.583Z,8.08
2023-04-16T04:29:10.298Z,8.10
2023-04-16T04:29:41.953Z,8.07
2023-04-16T04:30:13.529Z,8.06
2023-04-16T04:30:46.233Z,8.22
2023-04-16T04:31:18.292Z,8.25
2023-04-16T04:31:50.880Z,8.24
2023-04-16T04:32:22.761Z,8.28
2023-04-16T04:32:54.354Z,8.18
2023-04-16T04:33:27.203Z,8.17
2023-04-16T04:33:59.094Z,8.07
2023-04-16T04:34:30.868Z,8.05
2023-04-16T04:35:03.822Z,8.11
2023-04-16T04:35:35.519Z,8.07
2023-04-16T04:36:07.415Z,8.20
2023-04-16T04:36:39.837Z,8.20
2023-04-16T04:37:11.461Z,8.20
2023-04-16T04:37:43.438Z,8.24
2023-04-16T04:38:25.347Z,8.28
2023-04-16T04:38:57.391Z,8.27
2023-04-16T04:39:29.137Z,8.23
2023-04-16T04:40:01.007Z,8.18
2023-04-16T04:40:32.715Z,8.18
2023-04-16T04:41:04.333Z,8.17
2023-04-16T04:41:39.586Z,8.18
2023-04-16T04:42:11.191Z,8.19
2023-04-16T04:42:43.417Z,8.24
2023-04-16T04:43:14.961Z,8.26
2023-04-16T04:43:46.550Z,8.35
2023-04-16T04:44:18.400Z,8.43
2023-04-16T04:44:49.950Z,8.34
2023-04-16T04:45:25.342Z,8.26
2023-04-16T04:45:58.070Z,8.35
2023-04-16T04:46:32.010Z,8.25
2023-04-16T04:47:03.532Z,8.27
2023-04-16T04:47:35.486Z,8.24
2023-04-16T04:48:07.198Z,8.20
2023-04-16T04:48:39.422Z,8.15
2023-04-16T04:49:11.065Z,8.17
2023-04-16T04:49:42.776Z,8.30
2023-04-16T04:50:14.968Z,8.24
2023-04-16T04:50:46.711Z,8.26
2023-04-16T04:51:18.834Z,8.31
2023-04-16T04:51:51.718Z,8.20
2023-04-16T04:52:23.324Z,8.30
2023-04-16T04:52:55.708Z,8.20
2023-04-16T04:53:27.386Z,8.27
2023-04-16T04:53:59.520Z,8.26
2023-04-16T04:54:31.823Z,8.19
2023-04-16T04:55:03.765Z,8.36
2023-04-16T04:55:38.933Z,8.31
2023-04-16T04:56:12.742Z,8.40
2023-04-16T04:56:47.870Z,8.30
2023-04-16T04:57:19.416Z,8.31
2023-04-16T04:57:51.299Z,8.29
2023-04-16T04:58:22.863Z,8.24
2023-04-16T04:58:54.806Z,8.22
2023-04-16T04:59:26.450Z,8.26
2023-04-16T04:59:58.216Z,8.24
2023-04-16T05:00:34.420Z,8.22
2023-04-16T05:01:06.237Z,8.14
2023-04-16T05:01:38.412Z,8.23
2023-04-16T05:02:10.058Z,8.27
2023-04-16T05:02:41.831Z,8.18
2023-04-16T05:03:19.969Z,8.14
2023-04-16T05:03:51.691Z,8.26
2023-04-16T05:04:23.303Z,8.34
2023-04-16T05:04:55.007Z,8.20
2023-04-16T05:05:26.715Z,8.15
2023-04-16T05:05:58.321Z,8.16
2023-04-16T05:06:30.098Z,8.15
2023-04-16T05:07:02.436Z,8.13
2023-04-16T05:07:33.986Z,8.10
2023-04-16T05:08:05.505Z,8.30
2023-04-16T05:08:37.014Z,8.23
2023-04-16T05:09:11.883Z,8.21
2023-04-16T05:09:43.540Z,8.18
2023-04-16T05:10:15.693Z,8.18
2023-04-16T05:10:47.244Z,8.24
2023-04-16T05:11:18.766Z,8.20
2023-04-16T05:11:50.426Z,8.31
2023-04-16T05:12:22.183Z,8.23
2023-04-16T05:12:53.755Z,8.27
2023-04-16T05:13:25.324Z,8.24
2023-04-16T05:13:57.007Z,8.22
2023-04-16T05:14:28.543Z,8.14
2023-04-16T05:15:00.061Z,8.27
2023-04-16T05:15:31.641Z,8.24
2023-04-16T05:16:03.214Z,8.25
2023-04-16T05:16:36.626Z,8.22
2023-04-16T05:17:08.184Z,8.21
2023-04-16T05:17:39.846Z,8.21
2023-04-16T05:18:11.492Z,8.27
2023-04-16T05:18:43.175Z,8.31
2023-04-16T05:19:14.719Z,8.37
2023-04-16T05:19:46.256Z,8.24
2023-04-16T05:20:17.845Z,8.36
2023-04-16T05:20:49.429Z,8.28
2023-04-16T05:21:20.947Z,8.34
2023-04-16T05:21:52.624Z,8.36
2023-04-16T05:22:24.162Z,8.19
2023-04-16T05:22:55.964Z,8.17
2023-04-16T05:23:27.843Z,8.16
2023-04-16T05:23:59.458Z,8.14
2023-04-16T05:24:30.995Z,8.23
2023-04-16T05:25:03.097Z,8.33
2023-04-16T05:25:34.735Z,8.41
2023-04-16T05:26:06.253Z,8.41
2023-04-16T05:26:37.882Z,8.40
2023-04-16T05:27:09.597Z,8.36
2023-04-16T05:27:41.493Z,8.30
2023-04-16T05:28:13.026Z,8.38
2023-04-16T05:28:44.521Z,8.35
2023-04-16T05:29:16.034Z,8.46
2023-04-16T05:29:47.548Z,8.38
2023-04-16T05:30:19.291Z,8.32
2023-04-16T05:30:51.079Z,8.23
2023-04-16T05:31:22.941Z,8.30
2023-04-16T05:31:54.548Z,8.20
2023-04-16T05:32:26.860Z,8.12
2023-04-16T05:32:58.515Z,8.13
2023-04-16T05:33:30.206Z,8.23
2023-04-16T05:34:01.786Z,8.21
2023-04-16T05:34:33.364Z,8.27
2023-04-16T05:35:05.556Z,8.29
2023-04-16T05:35:37.077Z,8.30
2023-04-16T05:36:08.591Z,8.34
2023-04-16T05:36:40.138Z,8.38
2023-04-16T05:37:11.667Z,8.36
2023-04-16T05:37:43.351Z,8.35
2023-04-16T05:38:14.850Z,8.30
2023-04-16T05:38:46.350Z,8.31
2023-04-16T05:39:18.648Z,8.27
2023-04-16T05:39:50.355Z,8.32
2023-04-16T05:40:21.971Z,8.35
2023-04-16T05:40:53.508Z,8.37
2023-04-16T05:41:25.072Z,8.35
2023-04-16T05:41:56.574Z,8.40
2023-04-16T05:42:28.323Z,8.32
2023-04-16T05:43:00.027Z,8.29
2023-04-16T05:43:31.767Z,8.30
2023-04-16T05:44:03.334Z,8.35
2023-04-16T05:44:34.886Z,8.36
2023-04-16T05:45:07.080Z,8.36
2023-04-16T05:45:41.292Z,8.38
2023-04-16T05:46:12.992Z,8.31
2023-04-16T05:46:44.552Z,8.46
2023-04-16T05:47:16.258Z,8.31
2023-04-16T05:47:47.963Z,8.34
2023-04-16T05:48:20.239Z,8.27
2023-04-16T05:48:52.025Z,8.28
2023-04-16T05:49:23.623Z,8.31
2023-04-16T05:49:55.295Z,8.25
2023-04-16T05:50:26.818Z,8.22
2023-04-16T05:50:58.338Z,8.42
2023-04-16T05:51:29.883Z,8.47
2023-04-16T05:52:01.725Z,8.39
2023-04-16T05:52:33.298Z,8.35
2023-04-16T05:53:06.688Z,8.43
2023-04-16T05:53:38.227Z,8.40
2023-04-16T05:54:09.760Z,8.43
2023-04-16T05:54:41.372Z,8.30
2023-04-16T05:55:13.059Z,8.34
2023-04-16T05:55:44.753Z,8.48
2023-04-16T05:56:16.317Z,8.48
2023-04-16T05:56:47.820Z,8.42
2023-04-16T05:57:19.322Z,8.54
2023-04-16T05:57:50.995Z,8.55
2023-04-16T05:58:22.514Z,8.60
2023-04-16T05:58:54.070Z,8.57
2023-04-16T05:59:25.654Z,8.50
2023-04-16T05:59:57.765Z,8.42
2023-04-16T06:00:29.310Z,8.35
2023-04-16T06:01:01.455Z,8.41
2023-04-16T06:01:34.374Z,8.37
2023-04-16T06:02:06.893Z,8.43
2023-04-16T06:02:38.498Z,8.53
2023-04-16T06:03:12.038Z,8.47
2023-04-16T06:03:44.402Z,8.53
2023-04-16T06:04:16.666Z,8.55
2023-04-16T06:04:49.832Z,8.46
2023-04-16T06:05:21.595Z,8.35
2023-04-16T06:05:53.519Z,8.50
2023-04-16T06:06:26.693Z,8.46
2023-04-16T06:06:58.433Z,8.58
2023-04-16T06:07:29.961Z,8.62
2023-04-16T06:08:01.476Z,8.61
2023-04-16T06:08:33.044Z,8.65
2023-04-16T06:09:04.709Z,8.61
2023-04-16T06:09:36.497Z,8.53
2023-04-16T06:10:08.322Z,8.48
2023-04-16T06:10:40.107Z,8.47
2023-04-16T06:11:11.755Z,8.61
2023-04-16T06:11:43.313Z,8.61
2023-04-16T06:12:15.004Z,8.53
2023-04-16T06:12:46.542Z,8.54
2023-04-16T06:13:18.552Z,8.63
2023-04-16T06:13:50.192Z,8.68
2023-04-16T06:14:21.744Z,8.75
2023-04-16T06:14:53.311Z,8.63
2023-04-16T06:15:24.834Z,8.73
2023-04-16T06:15:56.477Z,8.66
2023-04-16T06:16:28.143Z,8.67
2023-04-16T06:16:59.745Z,8.80
2023-04-16T06:17:31.321Z,8.71
2023-04-16T06:18:02.985Z,8.62
2023-04-16T06:18:34.560Z,8.65
2023-04-16T06:19:06.205Z,8.73
2023-04-16T06:19:37.734Z,8.76
2023-04-16T06:20:09.889Z,8.75
2023-04-16T06:20:41.504Z,8.72
2023-04-16T06:21:13.063Z,8.78
2023-04-16T06:21:44.607Z,8.74
2023-04-16T06:22:16.149Z,8.79
2023-04-16T06:22:47.748Z,8.76
2023-04-16T06:23:19.297Z,8.72
2023-04-16T06:23:50.971Z,8.71
2023-04-16T06:24:22.528Z,8.74
2023-04-16T06:24:54.111Z,8.82
2023-04-16T06:25:25.730Z,8.82
2023-04-16T06:25:57.241Z,8.85
2023-04-16T06:26:28.772Z,8.78
2023-04-16T06:27:02.505Z,8.82
2023-04-16T06:27:34.076Z,8.87
2023-04-16T06:28:06.094Z,8.87
2023-04-16T06:28:37.600Z,8.85
2023-04-16T06:29:09.313Z,8.89
2023-04-16T06:29:41.975Z,8.90
2023-04-16T06:30:14.775Z,9.01
2023-04-16T06:30:47.209Z,9.02
2023-04-16T06:31:18.836Z,8.99
2023-04-16T06:31:50.492Z,8.99
2023-04-16T06:32:22.243Z,9.12
2023-04-16T06:32:53.972Z,9.17
2023-04-16T06:33:25.664Z,9.14
2023-04-16T06:33:57.362Z,9.14
2023-04-16T06:34:29.633Z,9.15
2023-04-16T06:35:01.400Z,9.24
2023-04-16T06:35:32.947Z,9.29
2023-04-16T06:36:04.695Z,9.14
2023-04-16T06:36:37.591Z,9.14
2023-04-16T06:37:10.653Z,9.12
2023-04-16T06:37:42.456Z,9.35
2023-04-16T06:38:14.574Z,9.41
2023-04-16T06:38:46.500Z,9.47
2023-04-16T06:39:18.219Z,9.43
2023-04-16T06:39:49.780Z,9.34
2023-04-16T06:40:21.346Z,9.31
2023-04-16T06:40:53.090Z,9.34
2023-04-16T06:41:26.619Z,9.32
2023-04-16T06:41:58.260Z,9.45
2023-04-16T06:42:29.808Z,9.36
2023-04-16T06:43:01.685Z,9.42
2023-04-16T06:43:33.971Z,9.37
2023-04-16T06:44:05.752Z,9.40
2023-04-16T06:44:37.414Z,9.33
2023-04-16T06:45:09.352Z,9.32
2023-04-16T06:45:41.131Z,9.24
2023-04-16T06:46:12.725Z,9.21
2023-04-16T06:46:44.410Z,9.26
2023-04-16T06:47:16.193Z,9.33
2023-04-16T06:47:48.218Z,9.36
2023-04-16T06:48:19.835Z,9.38
2023-04-16T06:48:51.540Z,9.48
2023-04-16T06:49:23.189Z,9.44
2023-04-16T06:49:54.856Z,9.46
2023-04-16T06:50:26.962Z,9.47
2023-04-16T06:50:58.643Z,9.50
2023-04-16T06:51:30.688Z,9.48
2023-04-16T06:52:05.144Z,9.32
2023-04-16T06:52:37.429Z,9.42
2023-04-16T06:53:09.152Z,9.44
2023-04-16T06:53:40.963Z,9.45
2023-04-16T06:54:12.505Z,9.44
2023-04-16T06:54:44.090Z,9.45
2023-04-16T06:55:15.726Z,9.45
2023-04-16T06:55:47.330Z,9.53
2023-04-16T06:56:19.018Z,9.47
2023-04-16T06:56:50.675Z,9.52
2023-04-16T06:57:22.275Z,9.57
2023-04-16T06:57:53.955Z,9.55
2023-04-16T06:58:25.710Z,9.52
2023-04-16T06:58:58.877Z,9.60
2023-04-16T06:59:30.493Z,9.64
2023-04-16T07:00:05.088Z,9.69
2023-04-16T07:00:36.697Z,9.64
2023-04-16T07:01:08.354Z,9.63
2023-04-16T07:01:41.447Z,9.65
2023-04-16T07:02:13.242Z,9.58
2023-04-16T07:02:45.021Z,9.44
2023-04-16T07:03:16.781Z,9.33
2023-04-16T07:03:48.562Z,9.38
2023-04-16T07:04:20.702Z,9.46
2023-04-16T07:04:52.476Z,9.46
2023-04-16T07:05:24.069Z,9.47
2023-04-16T07:05:56.338Z,9.43
2023-04-16T07:06:28.098Z,9.44
2023-04-16T07:06:59.617Z,9.50
2023-04-16T07:07:31.425Z,9.44
2023-04-16T07:08:03.127Z,9.48
2023-04-16T07:08:34.784Z,9.51